Time;durP1;ratioP1;P1;durP2;ratioP2;P2;SDS_P1;SDS_P2;PMS_P1;PMS_P2;Temp;Humidity;BMP_temperature;BMP_pressure;BME280_temperature;BME280_humidity;BME280_pressure;Samples;Min_cycle;Max_cycle;Signal;HPM_P1;HPM_P2
2022/07/30 00:01:24;;;;;;;5.28;1.85;;;18.20;99.90;;;;;;4995699;28;20401;-74
2022/07/30 00:03:49;;;;;;;2.88;1.55;;;18.20;99.90;;;;;;4995679;28;20113;-74
2022/07/30 00:06:15;;;;;;;4.95;1.67;;;18.00;99.90;;;;;;4995867;28;20101;-74
2022/07/30 00:08:41;;;;;;;2.85;1.48;;;18.00;99.90;;;;;;4995469;28;20054;-74
2022/07/30 00:11:08;;;;;;;5.22;1.90;;;18.00;99.90;;;;;;4995473;28;20062;-74
2022/07/30 00:13:33;;;;;;;4.93;1.90;;;18.20;99.90;;;;;;4995702;28;20121;-74
2022/07/30 00:15:59;;;;;;;4.15;2.05;;;18.10;99.90;;;;;;4995416;28;20102;-74
2022/07/30 00:18:25;;;;;;;4.00;2.10;;;18.00;99.90;;;;;;4995406;28;20495;-74
2022/07/30 00:20:50;;;;;;;4.38;1.58;;;18.00;99.90;;;;;;4995086;28;20034;-74
2022/07/30 00:23:16;;;;;;;3.88;1.52;;;18.00;99.90;;;;;;4995442;28;20053;-74
2022/07/30 00:25:42;;;;;;;5.28;1.98;;;18.00;99.90;;;;;;4995248;28;20022;-74
2022/07/30 00:28:08;;;;;;;3.70;1.83;;;18.00;99.90;;;;;;4995266;28;20484;-74
2022/07/30 00:30:34;;;;;;;3.15;1.77;;;18.00;99.90;;;;;;4995247;28;20030;-74
2022/07/30 00:32:59;;;;;;;2.92;1.73;;;17.90;99.90;;;;;;4995296;28;20050;-74
2022/07/30 00:35:25;;;;;;;5.68;2.33;;;17.90;99.90;;;;;;4995079;28;20041;-74
2022/07/30 00:37:51;;;;;;;3.58;1.83;;;18.10;99.90;;;;;;4995116;28;20105;-74
2022/07/30 00:40:17;;;;;;;3.95;1.85;;;18.20;99.90;;;;;;4995230;28;20068;-74
2022/07/30 00:42:46;;;;;;;3.85;2.15;;;18.20;99.90;;;;;;4995037;28;20507;-74
2022/07/30 00:45:13;;;;;;;5.05;1.90;;;18.20;99.90;;;;;;4994842;28;20503;-74
2022/07/30 00:47:39;;;;;;;3.60;2.00;;;18.00;99.90;;;;;;4994945;28;20465;-74
2022/07/30 00:50:07;;;;;;;3.25;1.52;;;17.80;99.90;;;;;;4994588;28;20026;-74
2022/07/30 00:52:34;;;;;;;3.90;1.90;;;17.60;99.90;;;;;;4994617;28;20498;-74
2022/07/30 00:55:00;;;;;;;3.65;1.88;;;17.60;99.90;;;;;;4994561;28;20030;-74
2022/07/30 00:57:27;;;;;;;3.83;1.70;;;17.70;99.90;;;;;;4994620;28;20096;-74
2022/07/30 00:59:53;;;;;;;4.15;1.63;;;17.70;99.90;;;;;;4994619;28;20033;-74
2022/07/30 01:02:19;;;;;;;4.18;2.00;;;17.70;99.90;;;;;;4994589;28;20058;-74
2022/07/30 01:04:44;;;;;;;3.85;1.65;;;17.70;99.90;;;;;;4994162;28;20117;-74
2022/07/30 01:07:10;;;;;;;5.35;1.77;;;17.60;99.90;;;;;;4994777;28;20042;-74
2022/07/30 01:09:37;;;;;;;3.50;1.65;;;17.50;99.90;;;;;;4994423;28;20030;-74
2022/07/30 01:12:05;;;;;;;2.88;1.52;;;17.50;99.90;;;;;;4994552;28;20037;-74
2022/07/30 01:14:33;;;;;;;3.85;2.10;;;17.60;99.90;;;;;;4994462;28;20022;-74
2022/07/30 01:16:59;;;;;;;3.72;1.63;;;17.50;99.90;;;;;;4994430;28;20488;-74
2022/07/30 01:19:48;;;;;;;4.47;1.88;;;17.40;99.90;;;;;;4994197;28;20041;-74
2022/07/30 01:22:14;;;;;;;7.22;1.77;;;17.30;99.90;;;;;;4994459;28;20054;-73
2022/07/30 01:24:43;;;;;;;3.67;2.05;;;17.20;99.90;;;;;;4994297;28;20078;-73
2022/07/30 01:27:10;;;;;;;3.00;1.52;;;17.30;99.90;;;;;;4994176;28;20022;-73
2022/07/30 01:29:38;;;;;;;4.72;1.83;;;17.20;99.90;;;;;;4993862;28;20042;-74
2022/07/30 01:32:06;;;;;;;5.80;2.00;;;17.30;99.90;;;;;;4993811;28;20022;-74
2022/07/30 01:34:35;;;;;;;4.03;1.75;;;17.30;99.90;;;;;;4994071;28;20516;-74
2022/07/30 01:37:02;;;;;;;3.90;1.73;;;17.30;99.90;;;;;;4994057;28;20078;-74
2022/07/30 01:39:29;;;;;;;4.25;1.92;;;17.50;99.90;;;;;;4993871;28;20040;-74
2022/07/30 01:41:56;;;;;;;4.25;1.83;;;17.40;99.90;;;;;;4994065;28;20082;-73
2022/07/30 01:44:24;;;;;;;5.88;2.03;;;17.50;99.90;;;;;;4993755;28;20473;-74
2022/07/30 01:46:51;;;;;;;5.43;2.58;;;17.50;99.90;;;;;;4993836;28;20026;-73
2022/07/30 01:49:18;;;;;;;3.72;2.00;;;17.60;99.90;;;;;;4993467;28;20477;-74
2022/07/30 01:51:46;;;;;;;4.38;1.60;;;17.60;99.90;;;;;;4993655;28;20101;-74
2022/07/30 01:54:13;;;;;;;4.53;2.53;;;17.50;99.90;;;;;;4993953;28;20026;-74
2022/07/30 01:56:41;;;;;;;3.85;2.17;;;17.70;99.90;;;;;;4993251;28;20034;-74
2022/07/30 01:59:09;;;;;;;4.85;1.73;;;17.70;99.90;;;;;;4993906;28;20034;-74
2022/07/30 02:01:35;;;;;;;4.30;1.83;;;17.90;99.90;;;;;;4993721;28;20457;-74
2022/07/30 02:04:02;;;;;;;3.03;1.58;;;17.80;99.90;;;;;;4993592;28;20041;-74
2022/07/30 02:06:41;;;;;;;3.25;1.70;;;17.60;99.90;;;;;;4993773;28;20492;-74
2022/07/30 02:09:07;;;;;;;3.25;2.03;;;17.50;99.90;;;;;;4993575;28;20507;-74
2022/07/30 02:14:32;;;;;;;2.92;1.60;;;17.70;99.90;;;;;;4994040;28;20041;-74
2022/07/30 02:17:03;;;;;;;5.22;1.60;;;17.90;99.90;;;;;;4993687;28;20037;-74
2022/07/30 02:19:35;;;;;;;4.40;1.95;;;17.90;99.90;;;;;;4993366;28;20033;-74
2022/07/30 02:22:05;;;;;;;3.42;1.83;;;17.70;99.90;;;;;;4993235;28;20043;-74
2022/07/30 02:24:33;;;;;;;4.95;1.90;;;17.70;99.90;;;;;;4993539;28;20045;-73
2022/07/30 02:27:07;;;;;;;3.53;1.77;;;17.60;99.90;;;;;;4993464;28;20038;-74
2022/07/30 02:29:35;;;;;;;3.20;2.00;;;17.70;99.90;;;;;;4993295;28;20030;-74
2022/07/30 02:32:07;;;;;;;4.13;1.73;;;17.60;99.90;;;;;;4993678;28;20381;-73
2022/07/30 02:34:36;;;;;;;3.42;1.80;;;17.60;99.90;;;;;;4993427;28;20057;-74
2022/07/30 02:37:05;;;;;;;2.80;1.77;;;17.70;99.90;;;;;;4993457;28;20030;-74
2022/07/30 02:39:33;;;;;;;2.83;1.50;;;17.80;99.90;;;;;;4993502;28;20034;-73
2022/07/30 02:41:59;;;;;;;3.45;1.67;;;17.80;99.90;;;;;;4993343;28;20511;-74
2022/07/30 02:44:28;;;;;;;8.32;2.03;;;17.80;99.90;;;;;;4993465;28;20042;-73
2022/07/30 02:46:54;;;;;;;3.50;1.92;;;17.80;99.90;;;;;;4993179;28;20113;-74
2022/07/30 02:49:22;;;;;;;3.28;1.60;;;17.70;99.90;;;;;;4993350;28;20049;-74
2022/07/30 02:51:49;;;;;;;3.33;1.50;;;17.70;99.90;;;;;;4993023;28;20396;-74
2022/07/30 02:54:18;;;;;;;4.13;1.98;;;17.90;99.90;;;;;;4993197;28;20031;-74
2022/07/30 02:56:46;;;;;;;4.20;1.70;;;17.80;99.90;;;;;;4993344;28;20476;-74
2022/07/30 02:59:13;;;;;;;3.70;1.67;;;17.90;99.90;;;;;;4992936;28;20396;-73
2022/07/30 03:01:40;;;;;;;4.43;1.90;;;17.90;99.90;;;;;;4992864;28;20485;-73
2022/07/30 03:04:07;;;;;;;2.90;1.55;;;17.90;99.90;;;;;;4985846;28;20042;-73
2022/07/30 03:06:34;;;;;;;5.70;1.92;;;17.90;99.90;;;;;;4987529;28;20081;-73
2022/07/30 03:09:02;;;;;;;3.10;1.70;;;17.80;99.90;;;;;;4990529;28;20134;-73
2022/07/30 03:11:29;;;;;;;5.68;1.90;;;17.60;99.90;;;;;;4989940;28;20045;-73
2022/07/30 03:13:55;;;;;;;5.40;2.65;;;17.80;99.90;;;;;;4989961;28;20140;-73
2022/07/30 03:16:23;;;;;;;4.75;2.00;;;17.90;99.90;;;;;;4990474;28;20057;-73
2022/07/30 03:18:50;;;;;;;3.08;1.55;;;17.90;99.90;;;;;;4975216;28;20051;-73
2022/07/30 03:21:18;;;;;;;4.07;2.08;;;17.90;99.90;;;;;;4971106;28;20026;-73
2022/07/30 03:23:46;;;;;;;6.00;1.85;;;17.80;99.90;;;;;;4970517;28;20113;-73
2022/07/30 03:26:13;;;;;;;3.60;2.05;;;17.80;99.90;;;;;;4971640;28;20034;-73
2022/07/30 03:28:39;;;;;;;3.90;2.40;;;17.60;99.90;;;;;;4971495;28;20791;-73
2022/07/30 03:31:09;;;;;;;3.65;1.85;;;17.70;99.90;;;;;;4971670;28;20505;-73
2022/07/30 03:33:35;;;;;;;3.15;1.73;;;17.60;99.90;;;;;;4971823;28;20105;-73
2022/07/30 03:36:03;;;;;;;3.30;1.60;;;17.40;99.90;;;;;;4971731;28;20030;-73
2022/07/30 03:38:29;;;;;;;3.92;1.70;;;17.40;99.90;;;;;;4971628;28;20035;-73
2022/07/30 03:40:56;;;;;;;3.60;1.90;;;17.40;99.90;;;;;;4971193;28;20034;-73
2022/07/30 03:43:22;;;;;;;6.63;1.90;;;17.40;99.90;;;;;;4968587;28;20485;-73
2022/07/30 03:45:50;;;;;;;4.78;2.28;;;17.30;99.90;;;;;;4968479;28;20023;-73
2022/07/30 03:48:15;;;;;;;3.72;1.77;;;17.30;99.90;;;;;;4968143;28;20085;-73
2022/07/30 03:50:42;;;;;;;5.07;1.77;;;17.20;99.90;;;;;;4968560;28;20030;-73
2022/07/30 03:53:09;;;;;;;2.90;1.55;;;17.20;99.90;;;;;;4971010;28;20125;-73
2022/07/30 03:55:35;;;;;;;5.47;2.25;;;17.00;99.90;;;;;;4970977;28;20030;-73
2022/07/30 03:58:02;;;;;;;4.13;2.33;;;17.10;99.90;;;;;;4970121;28;20030;-73
2022/07/30 04:00:28;;;;;;;4.93;2.05;;;17.30;99.90;;;;;;4967796;28;20058;-73
2022/07/30 04:02:54;;;;;;;4.93;2.10;;;17.30;99.90;;;;;;4967619;28;20054;-73
2022/07/30 04:05:20;;;;;;;5.47;2.30;;;17.30;99.90;;;;;;4967861;28;20154;-73
2022/07/30 04:07:46;;;;;;;4.95;2.70;;;17.20;99.90;;;;;;4967874;28;20035;-73
2022/07/30 04:10:13;;;;;;;7.60;3.13;;;17.50;99.90;;;;;;4967318;28;20400;-73
2022/07/30 04:12:39;;;;;;;4.35;2.40;;;17.60;99.90;;;;;;4967447;28;20031;-73
2022/07/30 04:15:06;;;;;;;3.25;1.88;;;17.60;99.90;;;;;;4967674;28;20436;-73
2022/07/30 04:17:40;;;;;;;2.65;1.48;;;17.40;99.90;;;;;;4967230;28;20105;-73
2022/07/30 04:20:18;;;;;;;3.72;2.03;;;17.30;99.90;;;;;;4966847;28;20063;-73
2022/07/30 04:22:44;;;;;;;5.82;2.10;;;17.20;99.90;;;;;;4967403;28;20114;-73
2022/07/30 04:25:10;;;;;;;3.33;1.73;;;17.30;99.90;;;;;;4967761;28;20110;-73
2022/07/30 04:27:38;;;;;;;7.85;1.80;;;17.10;99.90;;;;;;4967477;28;20114;-73
2022/07/30 04:30:05;;;;;;;4.43;2.00;;;17.40;99.90;;;;;;4967201;28;20489;-73
2022/07/30 04:32:32;;;;;;;5.13;2.30;;;17.50;99.90;;;;;;4967221;28;20035;-73
2022/07/30 04:34:58;;;;;;;4.07;1.85;;;17.50;99.90;;;;;;4967352;28;20026;-73
2022/07/30 04:37:26;;;;;;;6.18;1.20;;;17.60;99.90;;;;;;4967566;28;20077;-73
2022/07/30 04:39:56;;;;;;;3.30;1.50;;;17.20;99.90;;;;;;4966826;28;20429;-73
2022/07/30 04:42:23;;;;;;;4.28;1.40;;;17.10;99.90;;;;;;4967026;28;20058;-73
2022/07/30 04:44:49;;;;;;;2.90;1.23;;;17.20;99.90;;;;;;4966915;28;20043;-73
2022/07/30 04:47:16;;;;;;;2.65;1.38;;;17.20;99.90;;;;;;4967409;28;20114;-73
2022/07/30 04:49:43;;;;;;;3.25;1.15;;;17.00;99.90;;;;;;4966698;28;20194;-73
2022/07/30 04:52:11;;;;;;;4.13;1.23;;;17.00;99.90;;;;;;4966569;28;20432;-73
2022/07/30 04:54:43;;;;;;;8.77;2.15;;;17.00;99.90;;;;;;4966398;28;20058;-73
2022/07/30 04:57:11;;;;;;;3.88;1.75;;;17.20;99.90;;;;;;4966611;28;20027;-73
2022/07/30 04:59:37;;;;;;;2.95;1.17;;;17.40;99.90;;;;;;4966566;28;20053;-73
2022/07/30 05:02:05;;;;;;;4.78;1.10;;;17.10;99.90;;;;;;4966735;28;20030;-73
2022/07/30 05:04:33;;;;;;;2.88;1.48;;;16.90;99.90;;;;;;4966255;28;20044;-73
2022/07/30 05:07:03;;;;;;;2.85;1.00;;;16.90;99.90;;;;;;4966735;28;20040;-73
2022/07/30 05:09:30;;;;;;;3.88;1.40;;;16.90;99.90;;;;;;4966529;28;20547;-73
2022/07/30 05:11:56;;;;;;;2.33;1.27;;;16.90;99.90;;;;;;4966938;28;20035;-73
2022/07/30 05:14:23;;;;;;;3.72;0.95;;;17.20;99.90;;;;;;4966578;28;20106;-73
2022/07/30 05:16:50;;;;;;;3.08;1.30;;;17.10;99.90;;;;;;4966615;28;20065;-73
2022/07/30 05:19:18;;;;;;;3.50;1.48;;;17.40;99.90;;;;;;4966245;28;20050;-73
2022/07/30 05:21:43;;;;;;;2.70;1.23;;;17.50;99.90;;;;;;4967058;28;20507;-73
2022/07/30 05:24:09;;;;;;;2.25;1.10;;;17.40;99.90;;;;;;4966683;28;20070;-73
2022/07/30 05:26:35;;;;;;;3.90;1.83;;;17.40;99.90;;;;;;4966443;28;20516;-73
2022/07/30 05:29:01;;;;;;;3.05;1.05;;;17.30;99.90;;;;;;4964424;28;20515;-73
2022/07/30 05:31:26;;;;;;;5.72;1.40;;;17.50;99.90;;;;;;4965091;28;20121;-73
2022/07/30 05:33:52;;;;;;;3.53;1.50;;;17.50;99.90;;;;;;4966234;28;20034;-73
2022/07/30 05:36:19;;;;;;;3.10;1.50;;;17.50;99.90;;;;;;4965936;28;20030;-73
2022/07/30 05:38:45;;;;;;;2.67;1.30;;;17.60;99.90;;;;;;4966068;28;20421;-73
2022/07/30 05:41:10;;;;;;;2.50;1.00;;;17.70;99.90;;;;;;4965811;28;20038;-73
2022/07/30 05:43:36;;;;;;;3.08;1.20;;;17.90;99.90;;;;;;4966081;28;20031;-72
2022/07/30 05:46:02;;;;;;;3.58;1.20;;;18.00;99.90;;;;;;4965625;28;20369;-73
2022/07/30 05:48:30;;;;;;;4.32;1.23;;;17.70;99.90;;;;;;4966286;28;20030;-73
2022/07/30 05:50:55;;;;;;;2.28;1.25;;;18.00;99.90;;;;;;4966040;28;20116;-73
2022/07/30 05:53:21;;;;;;;2.65;1.30;;;18.10;99.90;;;;;;4966426;28;20074;-73
2022/07/30 05:55:47;;;;;;;2.17;1.17;;;18.10;99.90;;;;;;4965826;28;20027;-73
2022/07/30 05:58:13;;;;;;;2.28;1.20;;;18.20;99.90;;;;;;4965613;28;20120;-73
2022/07/30 06:00:38;;;;;;;3.38;1.17;;;18.30;99.90;;;;;;4965402;28;20058;-73
2022/07/30 06:03:04;;;;;;;4.13;1.17;;;18.30;99.90;;;;;;4965793;28;20485;-73
2022/07/30 06:05:31;;;;;;;2.90;1.25;;;18.40;99.90;;;;;;4965824;28;20502;-73
2022/07/30 06:07:57;;;;;;;2.17;0.90;;;18.40;99.90;;;;;;4965658;28;20470;-73
2022/07/30 06:10:22;;;;;;;2.88;1.13;;;18.40;99.90;;;;;;4965779;28;20033;-73
2022/07/30 06:12:48;;;;;;;2.00;0.90;;;18.40;99.90;;;;;;4965927;28;20042;-73
2022/07/30 06:15:14;;;;;;;2.75;1.05;;;18.50;99.90;;;;;;4965212;28;20113;-73
2022/07/30 06:17:44;;;;;;;2.28;1.17;;;18.40;99.90;;;;;;4965140;28;20158;-73
2022/07/30 06:20:12;;;;;;;1.42;0.93;;;18.70;99.90;;;;;;4965535;28;20118;-73
2022/07/30 06:22:38;;;;;;;3.72;1.13;;;18.70;99.90;;;;;;4965709;28;20117;-73
2022/07/30 06:25:04;;;;;;;2.28;1.02;;;18.80;99.90;;;;;;4965498;28;20142;-73
2022/07/30 06:27:32;;;;;;;4.78;1.42;;;18.90;99.90;;;;;;4965544;28;20489;-73
2022/07/30 06:29:59;;;;;;;6.00;1.15;;;18.90;99.90;;;;;;4965856;28;20121;-73
2022/07/30 06:32:25;;;;;;;2.83;1.08;;;19.00;99.90;;;;;;4965631;28;20381;-73
2022/07/30 06:34:50;;;;;;;3.40;1.23;;;19.10;99.90;;;;;;4965912;28;20058;-73
2022/07/30 06:37:16;;;;;;;2.35;1.17;;;19.10;99.90;;;;;;4965237;28;20504;-73
2022/07/30 06:39:42;;;;;;;1.80;0.93;;;19.20;99.90;;;;;;4965442;28;20042;-73
2022/07/30 06:42:07;;;;;;;3.65;1.13;;;19.40;99.90;;;;;;4966843;28;20454;-73
2022/07/30 06:44:33;;;;;;;2.17;0.90;;;19.50;99.90;;;;;;4969167;28;20034;-73
2022/07/30 06:46:58;;;;;;;2.25;1.35;;;19.60;99.90;;;;;;4968976;28;20396;-73
2022/07/30 06:49:24;;;;;;;3.50;1.27;;;19.70;99.90;;;;;;4969324;28;20457;-73
2022/07/30 06:51:50;;;;;;;1.65;1.00;;;19.80;99.90;;;;;;4968966;28;20058;-73
2022/07/30 06:54:16;;;;;;;4.97;1.00;;;20.00;99.90;;;;;;4969286;28;20030;-73
2022/07/30 06:56:41;;;;;;;2.33;0.90;;;20.20;99.90;;;;;;4969134;28;20035;-73
2022/07/30 06:59:07;;;;;;;3.08;1.40;;;20.30;99.90;;;;;;4968964;28;20027;-73
2022/07/30 07:01:33;;;;;;;2.45;1.10;;;20.60;99.90;;;;;;4970065;28;20468;-73
2022/07/30 07:03:58;;;;;;;3.42;1.38;;;20.60;99.90;;;;;;4968613;28;20417;-73
2022/07/30 07:06:24;;;;;;;1.52;0.88;;;20.80;99.90;;;;;;4970501;28;20366;-73
2022/07/30 07:08:49;;;;;;;2.20;0.95;;;21.10;99.90;;;;;;4971932;28;20063;-73
2022/07/30 07:11:15;;;;;;;2.22;0.82;;;21.30;99.90;;;;;;4971778;28;20182;-73
2022/07/30 07:13:41;;;;;;;4.30;1.08;;;21.60;99.90;;;;;;4971559;28;20031;-73
2022/07/30 07:16:06;;;;;;;3.40;1.00;;;21.90;99.90;;;;;;4971458;28;20489;-73
2022/07/30 07:18:32;;;;;;;1.55;0.90;;;22.00;99.90;;;;;;4971630;28;20035;-73
2022/07/30 07:20:57;;;;;;;1.65;0.80;;;22.30;99.90;;;;;;4971804;28;20027;-73
2022/07/30 07:23:23;;;;;;;1.52;0.90;;;22.60;99.90;;;;;;4971573;28;20070;-73
2022/07/30 07:25:49;;;;;;;5.10;1.33;;;23.10;99.90;;;;;;4971506;28;20166;-73
2022/07/30 07:28:14;;;;;;;2.15;1.10;;;24.00;99.90;;;;;;4971343;28;20035;-73
2022/07/30 07:30:41;;;;;;;2.05;0.93;;;24.60;99.50;;;;;;4971245;28;20030;-73
2022/07/30 07:33:08;;;;;;;4.80;1.98;;;25.10;97.40;;;;;;4971437;28;20142;-73
2022/07/30 07:35:34;;;;;;;4.03;1.58;;;26.90;97.60;;;;;;4971724;28;20086;-73
2022/07/30 07:37:59;;;;;;;2.63;0.70;;;26.20;93.80;;;;;;4971186;28;20043;-73
2022/07/30 07:40:25;;;;;;;5.07;1.30;;;26.40;94.60;;;;;;4971116;28;20033;-73
2022/07/30 07:42:51;;;;;;;2.85;1.00;;;27.60;94.10;;;;;;4971097;28;20051;-73
2022/07/30 07:45:16;;;;;;;3.03;1.00;;;28.60;93.50;;;;;;4971769;28;20473;-73
2022/07/30 07:47:47;;;;;;;1.63;1.00;;;28.50;92.50;;;;;;4971605;28;20122;-73
2022/07/30 07:50:14;;;;;;;1.98;1.08;;;29.50;91.90;;;;;;4971514;28;20034;-73
2022/07/30 07:52:40;;;;;;;3.97;1.60;;;29.50;91.10;;;;;;4970835;28;20070;-73
2022/07/30 07:55:06;;;;;;;2.78;1.13;;;29.10;91.70;;;;;;4969992;28;20481;-73
2022/07/30 07:57:43;;;;;;;2.90;1.17;;;29.20;91.30;;;;;;4971086;28;20415;-73
2022/07/30 08:00:13;;;;;;;2.83;1.05;;;29.50;91.30;;;;;;4971257;28;20035;-74
2022/07/30 08:02:39;;;;;;;5.05;1.98;;;28.20;92.70;;;;;;4986178;28;20393;-73
2022/07/30 08:05:25;;;;;;;2.78;1.02;;;27.40;93.00;;;;;;4970755;28;20062;-74
2022/07/30 08:07:51;;;;;;;2.05;1.17;;;25.10;94.90;;;;;;4970884;28;20027;-73
2022/07/30 08:10:17;;;;;;;2.70;0.93;;;24.10;96.40;;;;;;4970737;28;20455;-73
2022/07/30 08:12:43;;;;;;;4.07;1.20;;;23.60;98.20;;;;;;4970579;28;20027;-73
2022/07/30 08:15:09;;;;;;;2.65;1.25;;;24.10;97.90;;;;;;4970606;28;20031;-73
2022/07/30 08:17:45;;;;;;;2.35;1.10;;;25.90;94.90;;;;;;4970861;28;20102;-73
2022/07/30 08:20:12;;;;;;;2.00;0.90;;;26.60;93.10;;;;;;4971191;28;20034;-73
2022/07/30 08:22:38;;;;;;;3.35;1.02;;;27.60;93.20;;;;;;4971202;28;20041;-74
2022/07/30 08:25:04;;;;;;;2.03;1.00;;;28.00;91.70;;;;;;4971017;28;20031;-73
2022/07/30 08:27:30;;;;;;;2.78;1.17;;;28.00;91.80;;;;;;4970902;28;20131;-73
2022/07/30 08:29:56;;;;;;;2.92;1.00;;;28.00;92.40;;;;;;4970278;28;20520;-73
2022/07/30 08:32:21;;;;;;;1.95;1.00;;;27.70;93.10;;;;;;4970296;28;20027;-73
2022/07/30 08:34:47;;;;;;;2.17;0.98;;;26.30;91.80;;;;;;4970241;28;20058;-73
2022/07/30 08:37:13;;;;;;;2.47;1.00;;;24.80;93.00;;;;;;4970592;28;20031;-73
2022/07/30 08:39:38;;;;;;;3.33;1.23;;;24.50;93.90;;;;;;4970612;28;20093;-73
2022/07/30 08:42:04;;;;;;;1.40;0.85;;;24.70;94.00;;;;;;4970433;28;20031;-73
2022/07/30 08:44:32;;;;;;;2.72;0.80;;;24.90;94.20;;;;;;4970242;28;20038;-73
2022/07/30 08:47:00;;;;;;;4.20;1.38;;;24.80;95.10;;;;;;4970030;28;20042;-73
2022/07/30 08:49:27;;;;;;;2.35;0.90;;;25.30;95.70;;;;;;4969851;28;20031;-73
2022/07/30 08:51:53;;;;;;;1.75;0.95;;;25.70;94.90;;;;;;4969928;28;20042;-74
2022/07/30 08:54:19;;;;;;;5.32;1.30;;;25.80;94.10;;;;;;4970196;28;20033;-74
2022/07/30 08:56:48;;;;;;;3.38;1.20;;;25.70;95.20;;;;;;4970225;28;20034;-73
2022/07/30 08:59:14;;;;;;;3.30;1.13;;;25.50;95.10;;;;;;4970221;28;20027;-73
2022/07/30 09:01:40;;;;;;;2.65;1.10;;;25.50;95.50;;;;;;4969931;28;20034;-73
2022/07/30 09:04:05;;;;;;;2.95;0.90;;;25.20;94.00;;;;;;4969776;28;20090;-73
2022/07/30 09:06:31;;;;;;;1.95;1.00;;;25.30;94.60;;;;;;4969737;28;20023;-74
2022/07/30 09:08:57;;;;;;;1.30;0.90;;;25.20;93.80;;;;;;4970096;28;20163;-73
2022/07/30 09:11:22;;;;;;;5.57;1.45;;;25.30;94.00;;;;;;4969958;28;20030;-73
2022/07/30 09:13:49;;;;;;;2.05;0.90;;;25.20;94.10;;;;;;4969893;28;20062;-73
2022/07/30 09:16:22;;;;;;;2.17;1.00;;;25.20;94.20;;;;;;4969521;28;20023;-73
2022/07/30 09:18:49;;;;;;;6.57;1.53;;;25.60;94.60;;;;;;4969675;28;20049;-73
2022/07/30 09:21:23;;;;;;;2.72;0.93;;;25.50;93.40;;;;;;4969530;28;20270;-73
2022/07/30 09:24:04;;;;;;;4.90;1.30;;;25.60;93.50;;;;;;4969511;28;20516;-73
2022/07/30 09:26:34;;;;;;;3.03;1.10;;;25.50;95.60;;;;;;4969727;28;20034;-73
2022/07/30 09:29:35;;;;;;;2.00;1.02;;;25.30;92.20;;;;;;4969608;28;20194;-73
2022/07/30 09:32:04;;;;;;;2.22;0.98;;;25.50;94.00;;;;;;5005713;28;20036;-73
2022/07/30 09:34:38;;;;;;;4.45;1.50;;;25.50;92.60;;;;;;4976070;28;20046;-73
2022/07/30 09:37:16;;;;;;;4.78;1.23;;;25.60;93.80;;;;;;4969287;28;20030;-74
2022/07/30 09:39:43;;;;;;;2.25;1.10;;;25.80;94.30;;;;;;4969273;28;20029;-73
2022/07/30 09:42:26;;;;;;;2.08;0.95;;;25.90;93.40;;;;;;4969445;28;20031;-73
2022/07/30 09:45:08;;;;;;;6.55;1.50;;;25.90;94.60;;;;;;4969596;28;20035;-74
2022/07/30 09:47:39;;;;;;;3.78;1.50;;;25.90;94.80;;;;;;4969495;28;20058;-73
2022/07/30 09:50:12;;;;;;;1.90;1.05;;;26.10;94.10;;;;;;4967596;28;20472;-73
2022/07/30 09:52:40;;;;;;;3.35;1.17;;;26.00;94.20;;;;;;4969117;28;20050;-73
2022/07/30 09:55:07;;;;;;;2.22;1.30;;;26.20;94.30;;;;;;4969007;28;20026;-73
2022/07/30 09:57:33;;;;;;;2.63;1.40;;;26.30;94.20;;;;;;4969281;28;20393;-73
2022/07/30 10:00:17;;;;;;;2.78;1.33;;;26.40;93.30;;;;;;4968868;28;20035;-73
2022/07/30 10:02:44;;;;;;;3.03;1.23;;;26.50;93.60;;;;;;4969393;28;20389;-73
2022/07/30 10:05:12;;;;;;;1.70;1.10;;;26.80;93.40;;;;;;4983897;28;20447;-74
2022/07/30 10:07:38;;;;;;;2.85;1.25;;;26.70;93.10;;;;;;4968959;28;20380;-74
2022/07/30 10:10:04;;;;;;;4.93;1.63;;;26.70;92.90;;;;;;4969255;28;20125;-73
2022/07/30 10:12:31;;;;;;;2.92;1.40;;;26.40;92.70;;;;;;4969168;28;20089;-73
2022/07/30 10:15:00;;;;;;;2.65;1.17;;;26.50;92.50;;;;;;4968808;28;20104;-73
2022/07/30 10:17:26;;;;;;;8.20;1.90;;;26.60;93.70;;;;;;4968047;28;20026;-73
2022/07/30 10:19:52;;;;;;;2.83;1.30;;;26.70;93.00;;;;;;4968899;28;20408;-74
2022/07/30 10:22:18;;;;;;;2.17;1.17;;;26.40;93.50;;;;;;4968907;28;20023;-74
2022/07/30 10:24:45;;;;;;;2.78;0.88;;;27.20;93.00;;;;;;4968818;28;20125;-73
2022/07/30 10:27:10;;;;;;;2.30;1.02;;;27.10;93.40;;;;;;4968500;28;20039;-73
2022/07/30 10:29:37;;;;;;;2.63;1.15;;;27.10;93.20;;;;;;4968764;28;20535;-74
2022/07/30 10:32:03;;;;;;;4.13;1.30;;;27.00;92.70;;;;;;4968864;28;20023;-73
2022/07/30 10:34:31;;;;;;;2.35;1.27;;;27.00;92.30;;;;;;4968591;28;20037;-74
2022/07/30 10:37:01;;;;;;;3.78;1.20;;;27.30;92.20;;;;;;4968844;28;20030;-73
2022/07/30 10:39:36;;;;;;;2.13;1.10;;;27.30;91.60;;;;;;4968731;28;20457;-73
2022/07/30 10:42:05;;;;;;;3.78;1.35;;;27.00;91.70;;;;;;4968506;28;20023;-74
2022/07/30 10:45:02;;;;;;;3.83;1.38;;;27.00;91.70;;;;;;4968260;28;20119;-73
2022/07/30 10:47:28;;;;;;;3.38;1.35;;;27.20;91.70;;;;;;4968387;28;20035;-73
2022/07/30 10:50:04;;;;;;;2.25;1.15;;;27.40;91.20;;;;;;4967153;28;20034;-73
2022/07/30 10:52:57;;;;;;;2.70;1.30;;;27.70;91.10;;;;;;4968527;28;20054;-73
2022/07/30 10:55:23;;;;;;;1.92;1.10;;;27.70;92.20;;;;;;4968529;28;20086;-73
2022/07/30 10:58:11;;;;;;;5.30;1.60;;;27.90;91.30;;;;;;4968726;28;20019;-73
2022/07/30 11:00:51;;;;;;;4.95;1.48;;;28.10;91.00;;;;;;4968159;28;20563;-74
2022/07/30 11:03:28;;;;;;;4.38;1.45;;;28.20;91.00;;;;;;4968099;28;20034;-74
2022/07/30 11:06:30;;;;;;;2.17;0.90;;;28.60;91.80;;;;;;4968468;28;20140;-73
2022/07/30 11:08:56;;;;;;;2.42;1.20;;;28.40;91.10;;;;;;5004251;28;20452;-73
2022/07/30 11:11:21;;;;;;;2.80;1.23;;;28.40;88.60;;;;;;4976036;28;20070;-73
2022/07/30 11:14:05;;;;;;;3.45;1.42;;;28.40;89.20;;;;;;4968254;28;20034;-73
2022/07/30 11:16:31;;;;;;;2.72;1.30;;;28.40;89.70;;;;;;4968261;28;20100;-74
2022/07/30 11:19:23;;;;;;;3.67;1.33;;;28.80;90.30;;;;;;4968385;28;20461;-73
2022/07/30 11:22:23;;;;;;;2.53;1.10;;;28.90;90.20;;;;;;4968134;28;20034;-73
2022/07/30 11:24:50;;;;;;;5.13;1.38;;;29.10;89.40;;;;;;4968324;28;20078;-73
2022/07/30 11:27:35;;;;;;;2.78;1.17;;;28.90;87.00;;;;;;4968291;28;20042;-73
2022/07/30 11:30:01;;;;;;;3.10;1.05;;;29.50;87.30;;;;;;4970491;28;20468;-73
2022/07/30 11:32:27;;;;;;;2.35;1.10;;;29.30;85.20;;;;;;4971863;28;20026;-74
2022/07/30 11:35:13;;;;;;;4.63;1.15;;;29.50;85.90;;;;;;4971773;28;20074;-74
2022/07/30 11:38:08;;;;;;;3.45;1.20;;;29.20;83.60;;;;;;4971862;28;20571;-73
2022/07/30 11:40:48;;;;;;;2.88;1.20;;;29.10;85.90;;;;;;4975097;28;20609;-73
2022/07/30 11:43:28;;;;;;;3.83;1.10;;;29.10;86.50;;;;;;4971633;28;20034;-74
2022/07/30 11:46:06;;;;;;;3.22;1.23;;;29.30;85.40;;;;;;4971464;28;20033;-74
2022/07/30 11:48:32;;;;;;;2.20;0.80;;;29.40;85.00;;;;;;4971196;28;20039;-73
2022/07/30 11:50:58;;;;;;;1.90;1.08;;;29.40;85.30;;;;;;4971842;28;20038;-74
2022/07/30 11:53:24;;;;;;;2.58;1.30;;;29.30;83.00;;;;;;4971252;28;20047;-74
2022/07/30 11:55:58;;;;;;;2.28;1.10;;;29.30;82.50;;;;;;4971269;28;20049;-74
2022/07/30 11:58:36;;;;;;;2.17;1.10;;;29.20;83.10;;;;;;4971222;28;20027;-73
2022/07/30 12:01:02;;;;;;;2.42;1.15;;;29.10;82.90;;;;;;4970867;28;20039;-74
2022/07/30 12:03:30;;;;;;;4.95;1.60;;;29.00;81.80;;;;;;4970832;28;20038;-74
2022/07/30 12:06:05;;;;;;;2.60;1.20;;;29.70;85.20;;;;;;4971127;28;20084;-73
2022/07/30 12:08:45;;;;;;;4.05;1.48;;;29.60;82.90;;;;;;4970767;28;20098;-74
2022/07/30 12:11:11;;;;;;;1.75;0.90;;;29.50;82.00;;;;;;4970856;28;20103;-74
2022/07/30 12:13:39;;;;;;;2.45;1.10;;;29.80;81.80;;;;;;4970692;28;20102;-74
2022/07/30 12:16:17;;;;;;;1.70;1.00;;;29.90;79.70;;;;;;4970574;28;20027;-73
2022/07/30 12:18:44;;;;;;;2.45;0.95;;;30.00;79.60;;;;;;4970692;28;20033;-73
2022/07/30 12:21:11;;;;;;;3.72;1.30;;;30.30;81.40;;;;;;4970818;28;20433;-73
2022/07/30 12:23:37;;;;;;;1.23;0.73;;;30.00;78.40;;;;;;4970906;28;20445;-73
2022/07/30 12:26:04;;;;;;;0.88;0.68;;;29.90;77.20;;;;;;4970807;28;20118;-74
2022/07/30 12:28:32;;;;;;;4.60;1.00;;;30.40;76.30;;;;;;4970829;28;20027;-74
2022/07/30 12:31:01;;;;;;;1.58;0.90;;;30.20;76.70;;;;;;4970855;28;20085;-73
2022/07/30 12:33:26;;;;;;;1.88;1.05;;;30.20;76.80;;;;;;4970899;28;20069;-74
2022/07/30 12:35:55;;;;;;;2.90;1.25;;;30.40;77.10;;;;;;4970239;28;20035;-73
2022/07/30 12:38:22;;;;;;;2.60;1.30;;;30.10;76.00;;;;;;4970410;28;20030;-73
2022/07/30 12:40:58;;;;;;;2.83;0.88;;;29.50;74.60;;;;;;4969642;28;20023;-74
2022/07/30 12:43:45;;;;;;;1.80;1.02;;;29.60;75.80;;;;;;4970204;28;20046;-74
2022/07/30 12:46:13;;;;;;;1.55;0.90;;;30.10;75.00;;;;;;4970475;28;20158;-74
2022/07/30 12:49:08;;;;;;;2.08;0.77;;;30.70;75.40;;;;;;4970505;28;20026;-73
2022/07/30 12:51:36;;;;;;;2.13;1.05;;;30.20;73.90;;;;;;4969736;28;20050;-74
2022/07/30 12:54:16;;;;;;;5.28;1.10;;;30.20;77.80;;;;;;4970257;28;20432;-74
2022/07/30 12:57:01;;;;;;;1.85;0.90;;;30.00;76.70;;;;;;4970038;28;20566;-74
2022/07/30 12:59:29;;;;;;;3.85;1.13;;;29.80;76.70;;;;;;4969802;28;20503;-74